sensor_id;sensor_type;location;lat;lon;timestamp;pressure;altitude;pressure_sealevel;temperature;humidity
26859;BME280;14429;48.346;16.338;2023-11-21T00:01:13;99273.56;;;13.96;54.10
26859;BME280;14429;48.346;16.338;2023-11-21T00:03:39;99276.41;;;12.75;53.11
26859;BME280;14429;48.346;16.338;2023-11-21T00:06:05;99282.31;;;13.39;55.46
26859;BME280;14429;48.346;16.338;2023-11-21T00:08:30;99281.06;;;13.73;54.76
26859;BME280;14429;48.346;16.338;2023-11-21T00:10:56;99278.00;;;13.77;54.51
26859;BME280;14429;48.346;16.338;2023-11-21T00:13:21;99283.31;;;13.68;54.87
26859;BME280;14429;48.346;16.338;2023-11-21T00:15:48;99284.88;;;13.70;54.68
26859;BME280;14429;48.346;16.338;2023-11-21T00:18:13;99283.75;;;13.43;55.36
26859;BME280;14429;48.346;16.338;2023-11-21T00:20:39;99279.41;;;13.51;54.94
26859;BME280;14429;48.346;16.338;2023-11-21T00:23:04;99278.41;;;13.73;54.80
26859;BME280;14429;48.346;16.338;2023-11-21T00:25:29;99275.78;;;13.52;55.09
26859;BME280;14429;48.346;16.338;2023-11-21T00:27:55;99279.94;;;12.96;52.16
26859;BME280;14429;48.346;16.338;2023-11-21T00:30:20;99281.53;;;13.48;55.23
26859;BME280;14429;48.346;16.338;2023-11-21T00:32:47;99277.69;;;13.71;54.96
26859;BME280;14429;48.346;16.338;2023-11-21T00:35:12;99272.94;;;13.24;55.28
26859;BME280;14429;48.346;16.338;2023-11-21T00:37:38;99270.38;;;13.73;54.83
26859;BME280;14429;48.346;16.338;2023-11-21T00:40:04;99276.34;;;13.85;54.32
26859;BME280;14429;48.346;16.338;2023-11-21T00:42:29;99270.19;;;13.94;53.99
26859;BME280;14429;48.346;16.338;2023-11-21T00:44:55;99273.22;;;11.98;53.22
26859;BME280;14429;48.346;16.338;2023-11-21T00:47:20;99267.34;;;13.07;55.72
26859;BME280;14429;48.346;16.338;2023-11-21T00:49:47;99267.91;;;13.60;55.16
26859;BME280;14429;48.346;16.338;2023-11-21T00:52:12;99268.13;;;13.19;53.12
26859;BME280;14429;48.346;16.338;2023-11-21T00:54:38;99264.56;;;13.68;54.85
26859;BME280;14429;48.346;16.338;2023-11-21T00:57:03;99264.91;;;13.83;54.59
26859;BME280;14429;48.346;16.338;2023-11-21T00:59:29;99259.47;;;13.94;53.98
26859;BME280;14429;48.346;16.338;2023-11-21T01:01:54;99262.84;;;13.96;54.08
26859;BME280;14429;48.346;16.338;2023-11-21T01:04:20;99257.22;;;13.99;53.79
26859;BME280;14429;48.346;16.338;2023-11-21T01:06:46;99256.69;;;14.05;53.74
26859;BME280;14429;48.346;16.338;2023-11-21T01:09:12;99264.56;;;14.06;53.64
26859;BME280;14429;48.346;16.338;2023-11-21T01:11:37;99260.78;;;14.09;53.59
26859;BME280;14429;48.346;16.338;2023-11-21T01:14:03;99250.06;;;14.09;53.74
26859;BME280;14429;48.346;16.338;2023-11-21T01:16:28;99249.91;;;14.10;53.50
26859;BME280;14429;48.346;16.338;2023-11-21T01:18:54;99255.28;;;14.10;53.42
26859;BME280;14429;48.346;16.338;2023-11-21T01:21:19;99250.75;;;14.11;53.25
26859;BME280;14429;48.346;16.338;2023-11-21T01:23:46;99249.91;;;14.10;53.52
26859;BME280;14429;48.346;16.338;2023-11-21T01:26:11;99242.56;;;14.03;53.50
26859;BME280;14429;48.346;16.338;2023-11-21T01:28:37;99238.63;;;14.07;53.61
26859;BME280;14429;48.346;16.338;2023-11-21T01:31:02;99240.91;;;14.11;53.25
26859;BME280;14429;48.346;16.338;2023-11-21T01:33:28;99236.38;;;14.12;53.31
26859;BME280;14429;48.346;16.338;2023-11-21T01:35:53;99242.47;;;13.84;53.81
26859;BME280;14429;48.346;16.338;2023-11-21T01:38:18;99237.31;;;13.63;53.97
26859;BME280;14429;48.346;16.338;2023-11-21T01:40:45;99241.38;;;13.48;53.35
26859;BME280;14429;48.346;16.338;2023-11-21T01:43:11;99244.50;;;11.69;53.19
26859;BME280;14429;48.346;16.338;2023-11-21T01:45:36;99249.84;;;13.23;55.71
26859;BME280;14429;48.346;16.338;2023-11-21T01:48:02;99243.41;;;13.65;54.77
26859;BME280;14429;48.346;16.338;2023-11-21T01:50:27;99246.38;;;13.12;53.88
26859;BME280;14429;48.346;16.338;2023-11-21T01:52:53;99249.13;;;13.51;54.91
26859;BME280;14429;48.346;16.338;2023-11-21T01:55:19;99240.22;;;13.80;54.34
26859;BME280;14429;48.346;16.338;2023-11-21T01:57:46;99242.78;;;13.91;54.11
26859;BME280;14429;48.346;16.338;2023-11-21T02:00:13;99243.13;;;13.97;53.51
26859;BME280;14429;48.346;16.338;2023-11-21T02:02:38;99245.38;;;13.33;52.72
26859;BME280;14429;48.346;16.338;2023-11-21T02:05:04;99240.78;;;13.83;53.97
26859;BME280;14429;48.346;16.338;2023-11-21T02:07:30;99232.22;;;13.89;53.89
26859;BME280;14429;48.346;16.338;2023-11-21T02:09:55;99235.13;;;13.38;52.82
26859;BME280;14429;48.346;16.338;2023-11-21T02:12:20;99223.03;;;13.82;54.13
26859;BME280;14429;48.346;16.338;2023-11-21T02:14:47;99221.09;;;13.94;53.81
26859;BME280;14429;48.346;16.338;2023-11-21T02:17:12;99233.38;;;13.96;53.62
26859;BME280;14429;48.346;16.338;2023-11-21T02:19:38;99222.59;;;13.87;53.88
26859;BME280;14429;48.346;16.338;2023-11-21T02:22:03;99221.69;;;13.97;53.56
26859;BME280;14429;48.346;16.338;2023-11-21T02:24:30;99226.47;;;14.03;53.45
26859;BME280;14429;48.346;16.338;2023-11-21T02:26:56;99229.16;;;14.03;53.47
26859;BME280;14429;48.346;16.338;2023-11-21T02:29:21;99219.16;;;14.05;53.27
26859;BME280;14429;48.346;16.338;2023-11-21T02:31:47;99229.47;;;14.09;53.23
26859;BME280;14429;48.346;16.338;2023-11-21T02:34:13;99221.69;;;14.06;53.43
26859;BME280;14429;48.346;16.338;2023-11-21T02:36:38;99210.97;;;13.97;53.40
26859;BME280;14429;48.346;16.338;2023-11-21T02:39:04;99219.28;;;14.03;53.40
26859;BME280;14429;48.346;16.338;2023-11-21T02:41:31;99220.84;;;14.06;53.27
26859;BME280;14429;48.346;16.338;2023-11-21T02:43:56;99221.69;;;14.06;52.99
26859;BME280;14429;48.346;16.338;2023-11-21T02:46:21;99220.84;;;14.06;53.28
26859;BME280;14429;48.346;16.338;2023-11-21T02:48:47;99218.88;;;14.08;53.07
26859;BME280;14429;48.346;16.338;2023-11-21T02:51:12;99215.47;;;14.06;53.27
26859;BME280;14429;48.346;16.338;2023-11-21T02:53:38;99211.94;;;14.05;53.31
26859;BME280;14429;48.346;16.338;2023-11-21T02:56:04;99212.09;;;14.04;53.25
26859;BME280;14429;48.346;16.338;2023-11-21T02:58:31;99212.50;;;14.00;53.41
26859;BME280;14429;48.346;16.338;2023-11-21T03:00:56;99218.84;;;13.99;53.46
26859;BME280;14429;48.346;16.338;2023-11-21T03:03:21;99206.56;;;13.96;53.42
26859;BME280;14429;48.346;16.338;2023-11-21T03:05:47;99218.00;;;13.98;53.35
26859;BME280;14429;48.346;16.338;2023-11-21T03:08:13;99214.34;;;13.99;53.42
26859;BME280;14429;48.346;16.338;2023-11-21T03:10:38;99219.44;;;14.02;53.27
26859;BME280;14429;48.346;16.338;2023-11-21T03:13:03;99224.78;;;14.02;53.20
26859;BME280;14429;48.346;16.338;2023-11-21T03:15:30;99210.66;;;14.00;53.45
26859;BME280;14429;48.346;16.338;2023-11-21T03:17:55;99211.38;;;14.02;53.43
26859;BME280;14429;48.346;16.338;2023-11-21T03:20:21;99208.69;;;14.02;53.25
26859;BME280;14429;48.346;16.338;2023-11-21T03:22:46;99213.50;;;13.99;53.41
26859;BME280;14429;48.346;16.338;2023-11-21T03:25:12;99216.31;;;13.97;53.52
26859;BME280;14429;48.346;16.338;2023-11-21T03:27:38;99220.41;;;14.01;53.27
26859;BME280;14429;48.346;16.338;2023-11-21T03:30:04;99219.44;;;14.02;53.22
26859;BME280;14429;48.346;16.338;2023-11-21T03:32:31;99213.06;;;14.03;53.25
26859;BME280;14429;48.346;16.338;2023-11-21T03:34:57;99208.63;;;13.83;53.71
26859;BME280;14429;48.346;16.338;2023-11-21T03:37:23;99208.53;;;13.94;53.57
26859;BME280;14429;48.346;16.338;2023-11-21T03:39:49;99210.97;;;13.97;53.30
26859;BME280;14429;48.346;16.338;2023-11-21T03:42:14;99206.28;;;13.99;53.28
26859;BME280;14429;48.346;16.338;2023-11-21T03:44:39;99212.72;;;13.78;53.17
26859;BME280;14429;48.346;16.338;2023-11-21T03:47:05;99219.34;;;13.83;53.64
26859;BME280;14429;48.346;16.338;2023-11-21T03:49:32;99215.66;;;13.84;53.73
26859;BME280;14429;48.346;16.338;2023-11-21T03:51:57;99224.22;;;13.69;53.62
26859;BME280;14429;48.346;16.338;2023-11-21T03:54:22;99236.75;;;13.00;55.17
26859;BME280;14429;48.346;16.338;2023-11-21T03:56:48;99224.31;;;13.49;54.77
26859;BME280;14429;48.346;16.338;2023-11-21T03:59:13;99227.50;;;13.73;54.19
26859;BME280;14429;48.346;16.338;2023-11-21T04:01:38;99214.81;;;13.74;54.06
26859;BME280;14429;48.346;16.338;2023-11-21T04:04:04;99216.81;;;13.82;53.92
26859;BME280;14429;48.346;16.338;2023-11-21T04:06:31;99216.53;;;13.85;53.85
26859;BME280;14429;48.346;16.338;2023-11-21T04:08:56;99226.69;;;13.91;53.60
26859;BME280;14429;48.346;16.338;2023-11-21T04:11:21;99216.19;;;13.60;51.15
26859;BME280;14429;48.346;16.338;2023-11-21T04:13:47;99217.09;;;13.88;53.36
26859;BME280;14429;48.346;16.338;2023-11-21T04:16:12;99214.03;;;13.93;53.52
26859;BME280;14429;48.346;16.338;2023-11-21T04:18:38;99219.97;;;13.96;53.34
26859;BME280;14429;48.346;16.338;2023-11-21T04:21:04;99219.84;;;13.98;53.30
26859;BME280;14429;48.346;16.338;2023-11-21T04:23:31;99207.97;;;14.00;53.32
26859;BME280;14429;48.346;16.338;2023-11-21T04:25:57;99212.66;;;13.98;53.27
26859;BME280;14429;48.346;16.338;2023-11-21T04:28:22;99206.16;;;14.01;53.00
26859;BME280;14429;48.346;16.338;2023-11-21T04:30:48;99210.66;;;14.00;53.08
26859;BME280;14429;48.346;16.338;2023-11-21T04:33:13;99208.69;;;14.02;53.10
26859;BME280;14429;48.346;16.338;2023-11-21T04:35:39;99205.59;;;13.97;53.25
26859;BME280;14429;48.346;16.338;2023-11-21T04:38:04;99208.28;;;13.97;53.26
26859;BME280;14429;48.346;16.338;2023-11-21T04:40:31;99207.97;;;14.00;53.17
26859;BME280;14429;48.346;16.338;2023-11-21T04:42:56;99210.66;;;14.00;53.20
26859;BME280;14429;48.346;16.338;2023-11-21T04:45:22;99202.63;;;14.00;53.00
26859;BME280;14429;48.346;16.338;2023-11-21T04:47:47;99199.94;;;14.00;53.12
26859;BME280;14429;48.346;16.338;2023-11-21T04:50:12;99207.50;;;13.86;53.42
26859;BME280;14429;48.346;16.338;2023-11-21T04:52:38;99202.94;;;13.68;53.46
26859;BME280;14429;48.346;16.338;2023-11-21T04:55:04;99199.44;;;13.67;53.73
26859;BME280;14429;48.346;16.338;2023-11-21T04:57:31;99211.09;;;13.57;53.99
26859;BME280;14429;48.346;16.338;2023-11-21T04:59:56;99208.31;;;13.77;53.92
26859;BME280;14429;48.346;16.338;2023-11-21T05:02:22;99205.53;;;13.78;53.65
26859;BME280;14429;48.346;16.338;2023-11-21T05:04:47;99211.34;;;13.24;53.49
26859;BME280;14429;48.346;16.338;2023-11-21T05:07:13;99209.50;;;13.45;53.80
26859;BME280;14429;48.346;16.338;2023-11-21T05:09:41;99211.50;;;13.62;53.86
26859;BME280;14429;48.346;16.338;2023-11-21T05:12:07;99214.97;;;13.82;53.68
26859;BME280;14429;48.346;16.338;2023-11-21T05:14:34;99215.41;;;13.87;53.44
26859;BME280;14429;48.346;16.338;2023-11-21T05:16:59;99213.44;;;13.89;53.37
26859;BME280;14429;48.346;16.338;2023-11-21T05:19:24;99212.31;;;13.92;53.34
26859;BME280;14429;48.346;16.338;2023-11-21T05:21:50;99213.31;;;13.91;53.22
26859;BME280;14429;48.346;16.338;2023-11-21T05:24:15;99219.50;;;13.91;53.18
26859;BME280;14429;48.346;16.338;2023-11-21T05:26:41;99218.50;;;13.92;53.22
26859;BME280;14429;48.346;16.338;2023-11-21T05:29:06;99217.66;;;13.92;53.27
26859;BME280;14429;48.346;16.338;2023-11-21T05:31:33;99235.47;;;13.93;53.21
26859;BME280;14429;48.346;16.338;2023-11-21T05:33:58;99232.66;;;13.94;53.12
26859;BME280;14429;48.346;16.338;2023-11-21T05:36:24;99232.66;;;13.94;53.21
26859;BME280;14429;48.346;16.338;2023-11-21T05:38:49;99223.88;;;13.92;53.03
26859;BME280;14429;48.346;16.338;2023-11-21T05:41:15;99229.22;;;13.92;53.60
26859;BME280;14429;48.346;16.338;2023-11-21T05:43:40;99232.78;;;13.93;53.33
26859;BME280;14429;48.346;16.338;2023-11-21T05:46:06;99233.75;;;13.92;53.28
26859;BME280;14429;48.346;16.338;2023-11-21T05:48:33;99238.25;;;13.91;53.30
26859;BME280;14429;48.346;16.338;2023-11-21T05:50:58;99232.91;;;13.91;53.24
26859;BME280;14429;48.346;16.338;2023-11-21T05:53:23;99244.47;;;13.92;53.15
26859;BME280;14429;48.346;16.338;2023-11-21T05:55:49;99258.63;;;13.94;53.11
26859;BME280;14429;48.346;16.338;2023-11-21T05:58:14;99260.56;;;13.92;53.29
26859;BME280;14429;48.346;16.338;2023-11-21T06:00:40;99271.00;;;13.85;53.28
26859;BME280;14429;48.346;16.338;2023-11-21T06:03:05;99274.81;;;13.63;53.83
26859;BME280;14429;48.346;16.338;2023-11-21T06:05:32;99272.50;;;12.68;49.69
26859;BME280;14429;48.346;16.338;2023-11-21T06:07:57;99276.47;;;13.54;54.14
26859;BME280;14429;48.346;16.338;2023-11-21T06:10:23;99274.03;;;13.72;53.74
26859;BME280;14429;48.346;16.338;2023-11-21T06:12:48;99268.41;;;13.74;53.61
26859;BME280;14429;48.346;16.338;2023-11-21T06:15:14;99281.06;;;13.73;53.20
26859;BME280;14429;48.346;16.338;2023-11-21T06:17:40;99278.66;;;13.70;53.13
26859;BME280;14429;48.346;16.338;2023-11-21T06:20:07;99284.50;;;13.54;53.93
26859;BME280;14429;48.346;16.338;2023-11-21T06:22:34;99289.03;;;13.54;54.02
26859;BME280;14429;48.346;16.338;2023-11-21T06:24:59;99295.88;;;13.38;53.57
26859;BME280;14429;48.346;16.338;2023-11-21T06:27:25;99293.47;;;13.64;53.90
26859;BME280;14429;48.346;16.338;2023-11-21T06:29:50;99299.56;;;13.75;53.73
26859;BME280;14429;48.346;16.338;2023-11-21T06:32:15;99301.00;;;13.79;53.51
26859;BME280;14429;48.346;16.338;2023-11-21T06:34:41;99302.50;;;13.43;53.85
26859;BME280;14429;48.346;16.338;2023-11-21T06:37:06;99311.63;;;12.69;53.95
26859;BME280;14429;48.346;16.338;2023-11-21T06:39:33;99308.00;;;13.42;54.63
26859;BME280;14429;48.346;16.338;2023-11-21T06:41:59;99314.00;;;13.14;54.94
26859;BME280;14429;48.346;16.338;2023-11-21T06:44:24;99314.50;;;12.57;53.00
26859;BME280;14429;48.346;16.338;2023-11-21T06:46:49;99310.81;;;13.00;54.33
26859;BME280;14429;48.346;16.338;2023-11-21T06:49:15;99306.81;;;12.33;55.13
26859;BME280;14429;48.346;16.338;2023-11-21T06:51:40;99316.16;;;13.20;55.28
26859;BME280;14429;48.346;16.338;2023-11-21T06:54:06;99307.16;;;13.01;55.45
26859;BME280;14429;48.346;16.338;2023-11-21T06:56:32;99320.81;;;13.38;54.63
26859;BME280;14429;48.346;16.338;2023-11-21T06:58:58;99317.28;;;13.38;54.58
26859;BME280;14429;48.346;16.338;2023-11-21T07:01:23;99320.78;;;13.58;54.19
26859;BME280;14429;48.346;16.338;2023-11-21T07:03:49;99317.31;;;13.67;53.99
26859;BME280;14429;48.346;16.338;2023-11-21T07:06:14;99308.88;;;13.72;53.65
26859;BME280;14429;48.346;16.338;2023-11-21T07:08:39;99315.22;;;13.71;53.77
26859;BME280;14429;48.346;16.338;2023-11-21T07:11:05;99312.63;;;13.60;53.77
26859;BME280;14429;48.346;16.338;2023-11-21T07:13:32;99312.97;;;13.75;53.62
26859;BME280;14429;48.346;16.338;2023-11-21T07:15:57;99318.75;;;13.71;53.63
26859;BME280;14429;48.346;16.338;2023-11-21T07:18:23;99318.81;;;13.60;53.88
26859;BME280;14429;48.346;16.338;2023-11-21T07:20:48;99315.88;;;13.43;53.96
26859;BME280;14429;48.346;16.338;2023-11-21T07:23:14;99315.63;;;13.06;53.50
26859;BME280;14429;48.346;16.338;2023-11-21T07:25:39;99322.25;;;12.29;55.93
26859;BME280;14429;48.346;16.338;2023-11-21T07:28:05;99318.50;;;12.63;56.41
26859;BME280;14429;48.346;16.338;2023-11-21T07:30:31;99328.47;;;12.61;56.95
26859;BME280;14429;48.346;16.338;2023-11-21T07:32:57;99336.16;;;12.96;55.82
26859;BME280;14429;48.346;16.338;2023-11-21T07:35:22;99330.78;;;12.96;55.53
26859;BME280;14429;48.346;16.338;2023-11-21T07:37:47;99325.69;;;12.93;55.46
26859;BME280;14429;48.346;16.338;2023-11-21T07:40:13;99325.44;;;13.36;54.88
26859;BME280;14429;48.346;16.338;2023-11-21T07:42:39;99328.75;;;13.49;54.40
26859;BME280;14429;48.346;16.338;2023-11-21T07:45:05;99339.09;;;13.33;54.83
26859;BME280;14429;48.346;16.338;2023-11-21T07:47:32;99331.38;;;13.60;54.08
26859;BME280;14429;48.346;16.338;2023-11-21T07:49:58;99339.88;;;13.45;54.51
26859;BME280;14429;48.346;16.338;2023-11-21T07:52:23;99332.06;;;13.62;54.05
26859;BME280;14429;48.346;16.338;2023-11-21T07:54:48;99329.66;;;13.59;54.04
26859;BME280;14429;48.346;16.338;2023-11-21T07:57:14;99336.66;;;13.71;53.87
26859;BME280;14429;48.346;16.338;2023-11-21T07:59:40;99324.53;;;13.26;53.01
26859;BME280;14429;48.346;16.338;2023-11-21T08:02:05;99331.66;;;12.96;53.52
26859;BME280;14429;48.346;16.338;2023-11-21T08:04:32;99336.06;;;13.47;54.25
26859;BME280;14429;48.346;16.338;2023-11-21T08:06:57;99334.94;;;13.70;53.77
26859;BME280;14429;48.346;16.338;2023-11-21T08:09:23;99343.69;;;13.72;53.66
26859;BME280;14429;48.346;16.338;2023-11-21T08:11:48;99336.72;;;13.60;53.47
26859;BME280;14429;48.346;16.338;2023-11-21T08:14:14;99334.41;;;13.75;53.63
26859;BME280;14429;48.346;16.338;2023-11-21T08:16:39;99340.78;;;13.84;53.43
26859;BME280;14429;48.346;16.338;2023-11-21T08:19:04;99344.06;;;13.87;52.54
26859;BME280;14429;48.346;16.338;2023-11-21T08:21:31;99347.94;;;13.94;52.93
26859;BME280;14429;48.346;16.338;2023-11-21T08:23:57;99344.16;;;14.06;53.07
26859;BME280;14429;48.346;16.338;2023-11-21T08:26:22;99344.59;;;14.11;52.55
26859;BME280;14429;48.346;16.338;2023-11-21T08:28:47;99340.13;;;14.11;52.56
26859;BME280;14429;48.346;16.338;2023-11-21T08:31:13;99336.44;;;14.22;52.18
26859;BME280;14429;48.346;16.338;2023-11-21T08:33:38;99342.78;;;14.11;52.32
26859;BME280;14429;48.346;16.338;2023-11-21T08:36:07;99343.91;;;14.09;52.64
26859;BME280;14429;48.346;16.338;2023-11-21T08:38:33;99357.75;;;14.14;52.41
26859;BME280;14429;48.346;16.338;2023-11-21T08:40:59;99357.16;;;14.10;52.48
26859;BME280;14429;48.346;16.338;2023-11-21T08:43:24;99356.63;;;14.16;52.37
26859;BME280;14429;48.346;16.338;2023-11-21T08:45:50;99353.78;;;14.18;52.21
26859;BME280;14429;48.346;16.338;2023-11-21T08:48:15;99361.06;;;13.97;52.92
26859;BME280;14429;48.346;16.338;2023-11-21T08:50:40;99364.19;;;14.02;52.77
26859;BME280;14429;48.346;16.338;2023-11-21T08:53:06;99357.13;;;14.01;52.74
26859;BME280;14429;48.346;16.338;2023-11-21T08:55:32;99365.44;;;13.98;52.81
26859;BME280;14429;48.346;16.338;2023-11-21T08:57:58;99358.97;;;14.01;52.79
26859;BME280;14429;48.346;16.338;2023-11-21T09:00:23;99357.66;;;13.95;52.95
26859;BME280;14429;48.346;16.338;2023-11-21T09:02:49;99366.31;;;13.78;53.21
26859;BME280;14429;48.346;16.338;2023-11-21T09:05:14;99361.69;;;13.60;53.56
26859;BME280;14429;48.346;16.338;2023-11-21T09:07:40;99359.28;;;13.87;53.21
26859;BME280;14429;48.346;16.338;2023-11-21T09:10:07;99355.50;;;13.89;53.15
26859;BME280;14429;48.346;16.338;2023-11-21T09:12:34;99357.03;;;13.92;53.12
26859;BME280;14429;48.346;16.338;2023-11-21T09:15:00;99354.44;;;13.81;52.96
26859;BME280;14429;48.346;16.338;2023-11-21T09:17:26;99352.91;;;13.78;53.56
26859;BME280;14429;48.346;16.338;2023-11-21T09:19:51;99347.72;;;13.86;53.28
26859;BME280;14429;48.346;16.338;2023-11-21T09:22:17;99348.56;;;13.87;53.26
26859;BME280;14429;48.346;16.338;2023-11-21T09:24:42;99341.28;;;13.69;53.94
26859;BME280;14429;48.346;16.338;2023-11-21T09:27:08;99349.84;;;13.63;54.53
26859;BME280;14429;48.346;16.338;2023-11-21T09:29:34;99345.72;;;13.79;53.63
26859;BME280;14429;48.346;16.338;2023-11-21T09:32:00;99331.88;;;13.74;53.78
26859;BME280;14429;48.346;16.338;2023-11-21T09:34:25;99333.47;;;13.86;53.40
26859;BME280;14429;48.346;16.338;2023-11-21T09:36:51;99333.59;;;13.84;53.43
26859;BME280;14429;48.346;16.338;2023-11-21T09:39:17;99330.72;;;13.67;53.64
26859;BME280;14429;48.346;16.338;2023-11-21T09:41:44;99327.06;;;13.77;53.55
26859;BME280;14429;48.346;16.338;2023-11-21T09:44:13;99325.28;;;13.87;53.27
26859;BME280;14429;48.346;16.338;2023-11-21T09:46:41;99331.63;;;13.86;53.18
26859;BME280;14429;48.346;16.338;2023-11-21T09:49:09;99329.88;;;13.76;53.65
26859;BME280;14429;48.346;16.338;2023-11-21T09:51:35;99328.13;;;13.66;53.25
26859;BME280;14429;48.346;16.338;2023-11-21T09:54:02;99326.09;;;13.78;53.54
26859;BME280;14429;48.346;16.338;2023-11-21T09:56:28;99324.59;;;13.85;53.60
26859;BME280;14429;48.346;16.338;2023-11-21T09:58:53;99326.81;;;13.80;53.55
26859;BME280;14429;48.346;16.338;2023-11-21T10:01:20;99328.22;;;13.84;53.47
26859;BME280;14429;48.346;16.338;2023-11-21T10:03:47;99326.97;;;13.88;53.37
26859;BME280;14429;48.346;16.338;2023-11-21T10:06:13;99323.19;;;13.91;53.25
26859;BME280;14429;48.346;16.338;2023-11-21T10:08:38;99320.34;;;13.92;53.31
26859;BME280;14429;48.346;16.338;2023-11-21T10:11:05;99316.72;;;13.93;53.34
26859;BME280;14429;48.346;16.338;2023-11-21T10:13:32;99316.41;;;13.87;53.16
26859;BME280;14429;48.346;16.338;2023-11-21T10:15:58;99315.00;;;13.92;53.39
26859;BME280;14429;48.346;16.338;2023-11-21T10:18:23;99316.94;;;13.81;53.39
26859;BME280;14429;48.346;16.338;2023-11-21T10:20:50;99309.94;;;13.89;53.28
26859;BME280;14429;48.346;16.338;2023-11-21T10:23:16;99308.22;;;13.88;53.42
26859;BME280;14429;48.346;16.338;2023-11-21T10:25:41;99314.13;;;13.82;53.37
26859;BME280;14429;48.346;16.338;2023-11-21T10:28:07;99312.16;;;13.84;53.43
26859;BME280;14429;48.346;16.338;2023-11-21T10:30:32;99297.78;;;13.85;53.47
26859;BME280;14429;48.346;16.338;2023-11-21T10:32:59;99307.25;;;13.89;53.30
26859;BME280;14429;48.346;16.338;2023-11-21T10:35:24;99302.00;;;13.88;53.43
26859;BME280;14429;48.346;16.338;2023-11-21T10:37:59;99302.84;;;13.88;53.44
26859;BME280;14429;48.346;16.338;2023-11-21T10:40:27;99311.28;;;13.74;53.44
26859;BME280;14429;48.346;16.338;2023-11-21T10:42:53;99312.72;;;13.78;53.76
26859;BME280;14429;48.346;16.338;2023-11-21T10:45:18;99317.13;;;13.59;54.28
26859;BME280;14429;48.346;16.338;2023-11-21T10:47:44;99322.00;;;13.74;53.88
26859;BME280;14429;48.346;16.338;2023-11-21T10:50:09;99316.34;;;13.77;53.80
26859;BME280;14429;48.346;16.338;2023-11-21T10:52:35;99317.66;;;13.83;53.42
26859;BME280;14429;48.346;16.338;2023-11-21T10:55:13;99317.50;;;13.84;53.60
26859;BME280;14429;48.346;16.338;2023-11-21T10:57:41;99318.81;;;13.90;53.49
26859;BME280;14429;48.346;16.338;2023-11-21T11:00:07;99318.50;;;13.83;53.62
26859;BME280;14429;48.346;16.338;2023-11-21T11:02:33;99315.56;;;13.86;53.56
26859;BME280;14429;48.346;16.338;2023-11-21T11:04:59;99311.56;;;13.81;53.71
26859;BME280;14429;48.346;16.338;2023-11-21T11:07:26;99310.47;;;13.83;53.80
26859;BME280;14429;48.346;16.338;2023-11-21T11:09:53;99313.31;;;13.91;53.44
26859;BME280;14429;48.346;16.338;2023-11-21T11:12:20;99300.63;;;13.93;53.39
26859;BME280;14429;48.346;16.338;2023-11-21T11:14:45;99308.22;;;13.88;53.56
26859;BME280;14429;48.346;16.338;2023-11-21T11:17:12;99309.63;;;13.92;53.53
26859;BME280;14429;48.346;16.338;2023-11-21T11:19:38;99313.50;;;13.70;54.48
26859;BME280;14429;48.346;16.338;2023-11-21T11:22:10;99313.09;;;13.94;53.46
26859;BME280;14429;48.346;16.338;2023-11-21T11:25:03;99306.94;;;13.83;53.65
26859;BME280;14429;48.346;16.338;2023-11-21T11:27:40;99300.91;;;13.90;53.45
26859;BME280;14429;48.346;16.338;2023-11-21T11:30:16;99287.97;;;13.95;53.35
26859;BME280;14429;48.346;16.338;2023-11-21T11:32:54;99292.44;;;13.85;53.72
26859;BME280;14429;48.346;16.338;2023-11-21T11:35:28;99298.22;;;13.90;53.58
26859;BME280;14429;48.346;16.338;2023-11-21T11:37:57;99288.97;;;13.94;53.47
26859;BME280;14429;48.346;16.338;2023-11-21T11:40:26;99286.00;;;13.97;53.38
26859;BME280;14429;48.346;16.338;2023-11-21T11:43:06;99292.97;;;13.79;53.89
26859;BME280;14429;48.346;16.338;2023-11-21T11:45:33;99297.78;;;13.85;53.71
26859;BME280;14429;48.346;16.338;2023-11-21T11:47:59;99287.13;;;13.95;53.41
26859;BME280;14429;48.346;16.338;2023-11-21T11:50:25;99292.22;;;13.98;53.52
26859;BME280;14429;48.346;16.338;2023-11-21T11:52:52;99286.50;;;13.91;53.45
26859;BME280;14429;48.346;16.338;2023-11-21T11:55:18;99290.09;;;13.72;53.76
26859;BME280;14429;48.346;16.338;2023-11-21T11:57:45;99287.34;;;13.92;53.52
26859;BME280;14429;48.346;16.338;2023-11-21T12:00:16;99284.38;;;13.85;53.16
26859;BME280;14429;48.346;16.338;2023-11-21T12:02:43;99295.81;;;13.87;53.22
26859;BME280;14429;48.346;16.338;2023-11-21T12:05:10;99295.00;;;13.96;53.47
26859;BME280;14429;48.346;16.338;2023-11-21T12:07:42;99288.53;;;13.99;53.44
26859;BME280;14429;48.346;16.338;2023-11-21T12:10:09;99302.53;;;14.02;53.50
26859;BME280;14429;48.346;16.338;2023-11-21T12:12:36;99299.84;;;14.02;53.34
26859;BME280;14429;48.346;16.338;2023-11-21T12:15:01;99299.91;;;13.91;53.41
26859;BME280;14429;48.346;16.338;2023-11-21T12:17:28;99300.25;;;13.98;53.50
26859;BME280;14429;48.346;16.338;2023-11-21T12:20:01;99302.47;;;13.93;53.64
26859;BME280;14429;48.346;16.338;2023-11-21T12:22:27;99301.53;;;14.03;53.33
26859;BME280;14429;48.346;16.338;2023-11-21T12:24:53;99294.75;;;13.99;53.26
26859;BME280;14429;48.346;16.338;2023-11-21T12:27:20;99292.22;;;13.98;53.59
26859;BME280;14429;48.346;16.338;2023-11-21T12:29:46;99295.28;;;13.93;53.62
26859;BME280;14429;48.346;16.338;2023-11-21T12:32:11;99294.31;;;13.94;53.66
26859;BME280;14429;48.346;16.338;2023-11-21T12:34:38;99300.09;;;13.99;53.54
26859;BME280;14429;48.346;16.338;2023-11-21T12:37:04;99302.09;;;13.97;53.54
26859;BME280;14429;48.346;16.338;2023-11-21T12:39:29;99295.53;;;13.90;53.52
26859;BME280;14429;48.346;16.338;2023-11-21T12:41:55;99299.47;;;13.86;53.56
26859;BME280;14429;48.346;16.338;2023-11-21T12:44:20;99296.00;;;13.95;53.66